Tiempo atmosférico en la estación meteorológica de Marbella, Málaga (2 m.)



Fecha
DESCASC
Temp. máxima en grados centígrados (hora)
DESCASC
Temp. mínima en grados centígrados (hora)
DESCASC
Temp. media en grados centígrados
DESCASC
Racha de viento máxima en m/sg (hora)
DESCASC
Velocidad máxima media en intervalos de 10 minutos(hora)
DESCASC
Precipitaciones diarias en mm
DESCASC
Precipitaciones de 00:00 a 06:00 en mm
DESCASC
Precipitaciones de 06:00 a 12:00 en mm
DESCASC
Precipitaciones de 12:00 a 18:00 en mm
DESCASC
Precipitaciones de 18:00 a 24:00 en mm
DESCASC
16-06-2019 23 (16:40) 16.7 (02:20) 19.9 8.89 (05:20) 7.78 (00:10) 0 0 0 0 0
15-06-2019 20.2 (19:40) 15.1 (06:50) 17.7 9.72 (23:40) 8.33 (23:59) 0 0 0 0 0
14-06-2019 20 (00:10) 17.5 (07:00) 18.8 16.94 (09:40) 13.89 (09:40) 0 0 0 0 0
13-06-2019 24.1 (13:30) 18.1 (00:00) 21.1 5.83 (23:50) 5 (23:50) 0 0 0 0 0
12-06-2019 21.1 (13:30) 16.7 (00:00) 18.9 18.61 (03:20) 12.5 (03:20) 0 0 0 0 0
11-06-2019 22.9 (17:30) 16.2 (00:00) 19.6 13.89 (12:00) 9.72 (16:20) 0 0 0 0 0
10-06-2019 22.6 (18:00) 16.4 (00:00) 19.5 13.06 (14:00) 10.83 (13:40) 0 0 0 0 0
09-06-2019 22.7 (20:00) 18.5 (00:00) 20.6 13.89 (20:50) 9.72 (20:50) 0 0 0 0 0
08-06-2019 23.1 (14:30) 17 (00:00) 20.1 11.67 (15:50) 10 (11:00) 0 0 0 0 0
07-06-2019 20.6 (20:10) 16.8 (00:00) 18.7 11.94 (00:50) 10 (00:50) 0 0 0 0 0
06-06-2019 24.2 (19:20) 16.2 (00:00) 20.2 12.78 (21:00) 8.89 (22:00) 0 0 0 0 0
05-06-2019 23 (10:50) 18 (00:00) 20.5 13.06 (01:00) 11.11 (01:00) 0 0 0 0 0
04-06-2019 24.3 (18:00) 16.4 (00:00) 20.3 16.11 (18:50) 11.39 (18:50) 0 0 0 0 0
03-06-2019 24.3 (18:20) 17.5 (00:00) 20.9 3.33 (08:00) 2.5 (10:00) 0 0 0 0 0
02-06-2019 24.2 (16:50) 18.3 (00:00) 21.3 6.94 (09:30) 5 (09:30) 0 0 0 0 0
01-06-2019 23.6 (15:00) 18 (00:00) 20.8 9.44 (10:50) 6.67 (14:10) 0 0 0 0 0
31-05-2019 23 (17:00) 18 (00:00) 20.5 12.22 (15:10) 8.89 (15:00) 0 0 0 0 0
30-05-2019 21.9 (15:50) 18.2 (00:00) 20.1 11.94 (14:10) 9.17 (11:20) 0 0 0 0 0
29-05-2019 23.8 (13:00) 19.3 (00:00) 21.5 11.39 (09:50) 7.78 (10:00) 0 0 0 0 0
28-05-2019 22.8 (15:50) 18 (00:00) 20.4 7.5 (20:00) 7.22 (20:00) 0 0 0 0 0
27-05-2019 22 (17:40) 16.6 (00:00) 19.3 6.67 (18:10) 5.83 (19:10) 0 0 0 0 0
26-05-2019 24.6 (18:30) 17 (00:00) 20.8 6.11 (10:30) 5.56 (10:30) 0 0 0 0 0
25-05-2019 21.6 (16:50) 18.5 (00:00) 20.1 16.67 (00:20) 11.39 (00:20) 0 0 0 0 0
24-05-2019 21.9 (18:50) 17.4 (00:00) 19.6 16.94 (23:59) 10.83 (23:59) 0 0 0 0 0
23-05-2019 22.7 (08:30) 17.3 (00:00) 20 5 (20:40) 4.44 (20:40) 0 0 0 0 0
22-05-2019 21 (18:20) 17.5 (00:00) 19.3 8.61 (09:10) 6.94 (09:30) 0 0 0 0 0
21-05-2019 20.9 (15:20) 15.9 (05:00) 18.4 7.78 (21:10) 6.94 (21:00) 0 0 0 0 0

Gráficas

Temp. máximas Temp. mínimas Temp. medias Precipitaciones Rachas de viento máximas Velocidades máximas media en intervalos de 10 minutos

Datos horarios

Fecha y hora oficial Temperatura (ºC) Velocidad del viento (km/h) Dirección del viento Racha (km/h) Dirección de racha Precipitación (mm) Presión (hPa) Tendencia (hPa) Humedad (%)
2019-06-19 23:00:00 20.6 10 Oeste 21 Oeste 0 -- -- 74
2019-06-19 22:00:00 20.9 10 Oeste 28 Oeste 0 -- -- 75
2019-06-19 21:00:00 21.5 19 Sudoeste 23 Sudoeste 0 -- -- 73
2019-06-19 20:00:00 21.3 18 Oeste 23 Sudoeste 0 -- -- 75
2019-06-19 19:00:00 21.5 21 Oeste 30 Oeste 0 -- -- 73
2019-06-19 18:00:00 21.2 21 Oeste 27 Oeste 0 -- -- 73
2019-06-19 17:00:00 21.5 21 Oeste 28 Oeste 0 -- -- 70
2019-06-19 16:00:00 21.5 15 Oeste 19 Oeste 0 -- -- 72
2019-06-19 15:00:00 21.5 12 Oeste 24 Sudoeste 0 -- -- 70
2019-06-19 14:00:00 21.5 10 Oeste 17 Oeste 0 -- -- 70
2019-06-19 13:00:00 20.6 6 Oeste 12 Sudoeste 0 -- -- 76
2019-06-19 12:00:00 19.9 10 Sudoeste 17 Oeste 0 -- -- 79
2019-06-19 11:00:00 19 -- -- -- -- 0 -- -- --
2019-06-19 10:00:00 19.2 8 Oeste 14 Sur 0 -- -- 81
2019-06-19 09:00:00 20.1 4 Sur 10 Sudeste 0 -- -- 77
2019-06-19 08:00:00 18.4 4 Oeste 9 Sur 0 -- -- 84
2019-06-19 07:00:00 17.6 -- -- -- -- 0 -- -- 87
2019-06-19 06:00:00 17.8 5 Sudoeste 11 Sudoeste 0 -- -- 86
2019-06-19 05:00:00 17.6 5 Oeste 10 Oeste 0 -- -- 87
2019-06-19 04:00:00 17.4 4 Oeste 17 Sudoeste 0 -- -- 86
2019-06-19 03:00:00 18.1 13 Oeste 22 Oeste 0 -- -- 85
2019-06-19 02:00:00 18.4 16 Oeste 22 Oeste 0 -- -- 84
2019-06-19 01:00:00 19 10 Oeste 20 Oeste 0 -- -- 81
2019-06-19 00:00:00 19.5 16 Oeste 24 Oeste 0 -- -- 79
2019-06-18 23:00:00 20.9 23 Oeste 32 Oeste 0 -- -- 71
2019-06-18 22:00:00 20.1 7 Oeste 16 Oeste 0 -- -- 76
2019-06-18 21:00:00 20.5 10 Oeste 25 Oeste 0 -- -- 74
2019-06-18 20:00:00 21.9 20 Oeste 24 Oeste 0 -- -- 64
2019-06-18 19:00:00 22.1 21 Sudoeste 27 Sudoeste 0 -- -- 62
2019-06-18 18:00:00 21.7 10 Sudoeste 14 Sudoeste 0 -- -- 73
2019-06-18 17:00:00 20.6 13 Sudoeste 19 Oeste 0 -- -- 72
2019-06-18 16:00:00 20.7 13 Sudoeste 23 Sudoeste 0 -- -- 72
2019-06-18 15:00:00 20.1 14 Oeste 17 Oeste 0 -- -- 74
2019-06-18 14:00:00 20.2 11 Sudoeste 14 Sudoeste 0 -- -- 75
2019-06-18 13:00:00 19.6 6 Sudoeste 16 Oeste 0 -- -- 80
2019-06-18 12:00:00 18.5 15 Oeste 18 Sudoeste 0 -- -- 81
2019-06-18 11:00:00 18.4 16 Sudoeste 18 Sudoeste 0 -- -- 85
2019-06-18 10:00:00 18.1 13 Oeste 17 Oeste 0 -- -- 84
2019-06-18 09:00:00 18.1 15 Oeste 18 Oeste 0 -- -- 87
2019-06-18 08:00:00 17.7 9 Noroeste 17 Oeste 0 -- -- 86
2019-06-18 07:00:00 17.5 10 Oeste 18 Oeste 0 -- -- 87
2019-06-18 06:00:00 17.5 11 Oeste 14 Oeste 0 -- -- 80
2019-06-18 05:00:00 16.9 9 Oeste 10 Oeste 0 -- -- 77
2019-06-18 04:00:00 17.4 2 Oeste 5 Oeste 0 -- -- 78
2019-06-18 03:00:00 18 0 Calma 6 Oeste 0 -- -- 77
2019-06-18 02:00:00 18.1 6 Noroeste 10 Oeste 0 -- -- 77
2019-06-18 01:00:00 18.4 6 Noroeste 9 Oeste 0 -- -- 78
2019-06-18 00:00:00 18.1 5 Noroeste 9 Oeste 0 -- -- 81
2019-06-17 23:00:00 18.3 4 Oeste 8 Oeste 0 -- -- 89
2019-06-17 22:00:00 19 8 Oeste 15 Oeste 0 -- -- 88
2019-06-17 21:00:00 20 13 Oeste 15 Oeste 0 -- -- 83
2019-06-17 20:00:00 20.5 12 Oeste 14 Oeste 0 -- -- 81
2019-06-17 19:00:00 20.7 12 Oeste 13 Oeste 0 -- -- 81
2019-06-17 18:00:00 20.9 10 Oeste 12 Sudoeste 0 -- -- 78
2019-06-17 17:00:00 22.3 4 Sur 8 Sudeste 0 -- -- 73
2019-06-17 16:00:00 21.7 5 Sur 6 Sur 0 -- -- 73
2019-06-17 15:00:00 21.5 5 Sur 7 Sur 0 -- -- 74
2019-06-17 14:00:00 21.4 4 Sur 7 Sur 0 -- -- 73
2019-06-17 13:00:00 21.8 3 Sur 5 Sur 0 -- -- 66
2019-06-17 12:00:00 21.4 3 Sudeste 5 Sur 0 -- -- 63
2019-06-17 11:00:00 21.7 0 Calma 5 Este 0 -- -- 69
2019-06-17 10:00:00 20.4 4 Nordeste 9 Este 0 -- -- 71
2019-06-17 09:00:00 20 4 Este 6 Este 0 -- -- 72
2019-06-17 08:00:00 18.6 3 Este 4 Este 0 -- -- 75
2019-06-17 07:00:00 17.1 0 Calma 5 Noroeste 0 -- -- 74
2019-06-17 06:00:00 17.3 5 Noroeste 6 Noroeste 0 -- -- 73
2019-06-17 05:00:00 17.6 2 Noroeste 4 Norte 0 -- -- 73
2019-06-17 04:00:00 17.4 0 Calma 4 Nordeste 0 -- -- 72
2019-06-17 03:00:00 17.9 0 Calma 5 Nordeste 0 -- -- 71
2019-06-17 02:00:00 18 3 Nordeste 4 Nordeste 0 -- -- 69
2019-06-17 01:00:00 18.3 0 Calma 3 Nordeste 0 -- -- 68
2019-06-17 00:00:00 18.6 0 Calma 4 Este 0 -- -- 66
2019-06-16 23:00:00 19.6 0 Calma 5 Nordeste 0 -- -- 65
2019-06-16 22:00:00 20.1 5 Nordeste 14 Este 0 -- -- 68
2019-06-16 21:00:00 21.7 14 Nordeste 24 Nordeste 0 -- -- 58
2019-06-16 20:00:00 22.2 18 Nordeste 26 Nordeste 0 -- -- 53
2019-06-16 19:00:00 22.3 21 Nordeste 24 Nordeste 0 -- -- 54
2019-06-16 18:00:00 22.7 20 Nordeste 24 Nordeste 0 -- -- 50
2019-06-16 17:00:00 22.5 23 Este 26 Este 0 -- -- 49
2019-06-16 16:00:00 22.2 20 Este 30 Este 0 -- -- 51
2019-06-16 15:00:00 22.4 21 Este 30 Nordeste 0 -- -- 48
2019-06-16 14:00:00 22.1 22 Este 26 Nordeste 0 -- -- 51
2019-06-16 13:00:00 19 17 Este 18 Este 0 -- -- 80
2019-06-16 12:00:00 18.9 10 Este 12 Este 0 -- -- 83
2019-06-16 11:00:00 18.6 10 Nordeste 13 Nordeste 0 -- -- 81
2019-06-16 10:00:00 18 15 Este 20 Este 0 -- -- 83
2019-06-16 09:00:00 18.9 16 Nordeste 23 Nordeste 0 -- -- 74
2019-06-16 08:00:00 18.7 14 Nordeste 26 Nordeste 0 -- -- 74
2019-06-16 07:00:00 18 19 Nordeste 30 Nordeste 0 -- -- 78
2019-06-16 06:00:00 17.8 26 Nordeste 32 Nordeste 0 -- -- 82
2019-06-16 05:00:00 18.6 15 Nordeste 28 Nordeste 0 -- -- 70
2019-06-16 04:00:00 18.3 17 Nordeste 22 Nordeste 0 -- -- 73
2019-06-16 03:00:00 17.3 18 Este 21 Este 0 -- -- 84
2019-06-16 02:00:00 17 0 Calma 9 Sudoeste 0 -- -- 84
2019-06-16 01:00:00 17.7 10 Sudoeste 32 Este 0 -- -- 82
2019-06-16 00:00:00 17.8 30 Este 35 Este 0 -- -- 82
2019-06-15 23:00:00 17.7 24 Este 27 Este 0 -- -- 83
2019-06-15 22:00:00 18.1 4 Oeste 10 Oeste 0 -- -- 80
2019-06-15 21:00:00 19.3 8 Oeste 12 Oeste 0 -- -- 76
2019-06-15 20:00:00 20.1 12 Oeste 22 Oeste 0 -- -- 72
2019-06-15 19:00:00 19.7 19 Oeste 22 Oeste 0 -- -- 73
2019-06-15 18:00:00 19.8 18 Oeste 24 Oeste 0 -- -- 75
2019-06-15 17:00:00 19.1 17 Oeste 19 Oeste 0 -- -- 77
2019-06-15 16:00:00 19.1 16 Oeste 21 Oeste 0 -- -- 78
2019-06-15 15:00:00 18.9 18 Oeste 22 Oeste 0 -- -- 75
2019-06-15 14:00:00 18.8 17 Oeste 24 Oeste 0 -- -- 71
2019-06-15 13:00:00 17.9 22 Oeste 24 Oeste 0 -- -- 75
2019-06-15 12:00:00 17.4 19 Oeste 25 Oeste 0 -- -- 78
2019-06-15 11:00:00 17.1 19 Oeste 21 Oeste 0 -- -- 79
2019-06-15 10:00:00 17.2 11 Sudoeste 14 Oeste 0 -- -- 81
2019-06-15 09:00:00 18.2 2 Oeste 7 Oeste 0 -- -- 75
2019-06-15 08:00:00 16.8 4 Oeste 7 Sudoeste 0 -- -- 79
2019-06-15 07:00:00 15.4 0 Calma 5 Sur 0 -- -- 81
2019-06-15 06:00:00 15.7 0 Calma 12 Sur 0 -- -- 80
2019-06-15 05:00:00 16.4 3 Sudeste 10 Sur 0 -- -- 77
2019-06-15 04:00:00 16.1 3 Nordeste 6 Sur 0 -- -- 80
2019-06-15 03:00:00 16.5 2 Sudeste 7 Sudoeste 0 -- -- 78
2019-06-15 02:00:00 16.8 4 Sudoeste 15 Sudoeste 0 -- -- 78
2019-06-15 01:00:00 17.2 8 Sudoeste 15 Sudoeste 0 -- -- 78
2019-06-15 00:00:00 17.7 15 Sudoeste 28 Oeste 0 -- -- 73
2019-06-14 23:00:00 18.2 22 Oeste 39 Sudoeste 0 -- -- 67
2019-06-14 22:00:00 18.7 23 Oeste 45 Sudoeste 0 -- -- 65
2019-06-14 21:00:00 19.7 17 Oeste 34 Sudoeste 0 -- -- 63
2019-06-14 20:00:00 18.8 26 Sudoeste 41 Sudoeste 0 -- -- 72
2019-06-14 19:00:00 19.1 35 Sudoeste 45 Sudoeste 0 -- -- 68
2019-06-14 18:00:00 19.3 39 Sudoeste 48 Sudoeste 0 -- -- 66
2019-06-14 17:00:00 19.2 36 Sudoeste 42 Sudoeste 0 -- -- 65
2019-06-14 16:00:00 18.9 32 Sudoeste 42 Sudoeste 0 -- -- 69
2019-06-14 15:00:00 18.6 36 Sudoeste 50 Sudoeste 0 -- -- 70
2019-06-14 14:00:00 18.5 38 Sudoeste 46 Sudoeste 0 -- -- 73
2019-06-14 13:00:00 18.4 37 Sudoeste 46 Sudoeste 0 -- -- 71
2019-06-14 12:00:00 18 34 Sudoeste 48 Sudoeste 0 -- -- 74
2019-06-14 11:00:00 17.9 36 Sudoeste 46 Sudoeste 0 -- -- 76
2019-06-14 10:00:00 17.7 36 Sudoeste 61 Sudoeste 0 -- -- 75
2019-06-14 09:00:00 17.6 49 Oeste 59 Oeste 0 -- -- 72
2019-06-14 08:00:00 17.6 44 Sudoeste 57 Sudoeste 0 -- -- 73
2019-06-14 07:00:00 17.5 37 Oeste 45 Oeste 0 -- -- 76
2019-06-14 06:00:00 17.9 33 Oeste 47 Sudoeste 0 -- -- 77
2019-06-14 05:00:00 18.5 27 Oeste 39 Sudoeste 0 -- -- 79
2019-06-14 04:00:00 17.9 19 Sudoeste 26 Sudoeste 0 -- -- 86
2019-06-14 03:00:00 19 12 Oeste 14 Oeste 0 -- -- 88
2019-06-14 02:00:00 18.9 7 Oeste 12 Oeste 0 -- -- 87
2019-06-14 01:00:00 19.6 10 Oeste 22 Oeste 0 -- -- 84
2019-06-14 00:00:00 19.9 17 Oeste 21 Oeste 0 -- -- 81
2019-06-13 23:00:00 19.7 10 Oeste 12 Oeste 0 -- -- 82
2019-06-13 22:00:00 19.7 9 Oeste 15 Oeste 0 -- -- 83
2019-06-13 21:00:00 20.4 10 Oeste 14 Oeste 0 -- -- 81
2019-06-13 20:00:00 21.2 7 Oeste 9 Oeste 0 -- -- 79
2019-06-13 19:00:00 23.3 2 Sur 9 Sudeste 0 -- -- 69
2019-06-13 18:00:00 23.4 5 Sudeste 13 Este 0 -- -- 70
2019-06-13 17:00:00 22.7 13 Este 14 Este 0 -- -- 70
2019-06-13 16:00:00 22.1 11 Este 14 Este 0 -- -- 70
2019-06-13 15:00:00 22.7 6 Este 14 Sudeste 0 -- -- 68
2019-06-13 14:00:00 23.5 4 Sudeste 9 Este 0 -- -- 63
2019-06-13 13:00:00 24 4 Nordeste 9 Nordeste 0 -- -- 61
2019-06-13 12:00:00 23.2 5 Nordeste 17 Nordeste 0 -- -- 65
2019-06-13 11:00:00 21.9 10 Nordeste 18 Nordeste 0 -- -- 70
2019-06-13 10:00:00 20.9 10 Nordeste 15 Nordeste 0 -- -- 73
2019-06-13 09:00:00 20.1 8 Este 16 Este 0 -- -- 76
2019-06-13 08:00:00 19.5 5 Norte 9 Nordeste 0 -- -- 79
2019-06-13 07:00:00 19 6 Nordeste 18 Nordeste 0 -- -- 79
2019-06-13 06:00:00 18.2 6 Nordeste 12 Norte 0 -- -- 80
2019-06-13 05:00:00 18.6 4 Norte 12 Nordeste 0 -- -- 80
2019-06-13 04:00:00 19 9 Nordeste 14 Norte 0 -- -- 79
2019-06-13 03:00:00 18.8 8 Nordeste 21 Nordeste 0 -- -- 79
2019-06-13 02:00:00 19 12 Norte 20 Nordeste 0 -- -- 78
2019-06-13 01:00:00 19 12 Nordeste 19 Nordeste 0 -- -- 79
2019-06-13 00:00:00 19 10 Nordeste 17 Norte 0 -- -- 80
2019-06-12 23:00:00 19 13 Nordeste 19 Nordeste 0 -- -- 80
2019-06-12 22:00:00 19.3 13 Nordeste 24 Nordeste 0 -- -- 78
2019-06-12 21:00:00 20 15 Nordeste 26 Nordeste 0 -- -- 75
2019-06-12 20:00:00 20.2 22 Nordeste 31 Este 0 -- -- 74
2019-06-12 19:00:00 20.9 21 Este 32 Este 0 -- -- 70
2019-06-12 18:00:00 21 22 Nordeste 29 Este 0 -- -- 67
2019-06-12 17:00:00 20.8 22 Nordeste 27 Nordeste 0 -- -- 68
2019-06-12 16:00:00 20.3 23 Nordeste 26 Nordeste 0 -- -- 68
2019-06-12 15:00:00 20.1 22 Este 32 Este 0 -- -- 68
2019-06-12 14:00:00 20.7 26 Nordeste 39 Nordeste 0 -- -- 62
2019-06-12 13:00:00 20.9 30 Nordeste 42 Este 0 -- -- 62
2019-06-12 12:00:00 20.5 27 Nordeste 40 Nordeste 0 -- -- 65
2019-06-12 11:00:00 20.1 26 Nordeste 38 Nordeste 0 -- -- 68
2019-06-12 10:00:00 19.6 24 Nordeste 35 Nordeste 0 -- -- 69
2019-06-12 09:00:00 19.3 23 Nordeste 36 Nordeste 0 -- -- 73
2019-06-12 08:00:00 19.1 23 Nordeste 45 Nordeste 0 -- -- 76
2019-06-12 07:00:00 19 25 Nordeste 50 Nordeste 0 -- -- 78
2019-06-12 06:00:00 19.1 22 Nordeste 45 Nordeste 0 -- -- 81
2019-06-12 05:00:00 19.3 34 Nordeste 54 Nordeste 0 -- -- 81
2019-06-12 04:00:00 19.3 38 Nordeste 67 Nordeste 0 -- -- 80
2019-06-12 03:00:00 19.3 39 Nordeste 53 Nordeste 0 -- -- 76
2019-06-12 02:00:00 17.5 5 Oeste 13 Sur 0 -- -- 83
2019-06-12 01:00:00 17.1 4 Oeste 8 Sudoeste 0 -- -- 83
2019-06-12 00:00:00 17.9 5 Oeste 9 Sur 0 -- -- 83
2019-06-11 23:00:00 18.5 6 Sudoeste 14 Oeste 0 -- -- 81
2019-06-11 22:00:00 18.7 10 Oeste 24 Sudoeste 0 -- -- 76
2019-06-11 21:00:00 20 12 Oeste 26 Sudoeste 0 -- -- 73
2019-06-11 20:00:00 20.2 21 Sudoeste 37 Sudoeste 0 -- -- 70
2019-06-11 19:00:00 21.3 23 Oeste 43 Oeste 0 -- -- 64
2019-06-11 18:00:00 21.9 22 Oeste 45 Noroeste 0 -- -- 60
2019-06-11 17:00:00 22.3 13 Oeste 47 Sudoeste 0 -- -- 59
2019-06-11 16:00:00 20.3 28 Sudoeste 39 Sudoeste 0 -- -- 69
2019-06-11 15:00:00 19.6 22 Sudoeste 40 Sudoeste 0 -- -- 70
2019-06-11 14:00:00 19.6 26 Oeste 38 Sudoeste 0 -- -- 69
2019-06-11 13:00:00 18.9 33 Sudoeste 46 Oeste 0 -- -- 70
2019-06-11 12:00:00 19.2 33 Oeste 50 Oeste 0 -- -- 60
2019-06-11 11:00:00 18.1 27 Oeste 36 Oeste 0 -- -- 70
2019-06-11 10:00:00 18.1 18 Oeste 31 Oeste 0 -- -- 71
2019-06-11 09:00:00 17.6 15 Oeste 20 Oeste 0 -- -- 78
2019-06-11 08:00:00 17 7 Oeste 13 Oeste 0 -- -- 78
2019-06-11 07:00:00 16.2 5 Oeste 13 Oeste 0 -- -- 82
2019-06-11 06:00:00 16.4 9 Oeste 14 Oeste 0 -- -- 80
2019-06-11 05:00:00 16.6 6 Oeste 9 Oeste 0 -- -- 77
2019-06-11 04:00:00 16.8 0 Calma 5 Nordeste 0 -- -- 79
2019-06-11 03:00:00 17.2 2 Oeste 12 Oeste 0 -- -- 79
2019-06-11 02:00:00 17 6 Noroeste 25 Oeste 0 -- -- 78
2019-06-11 01:00:00 17.8 9 Oeste 16 Oeste 0 -- -- 78
2019-06-11 00:00:00 18.6 15 Oeste 22 Oeste 0 -- -- 74
2019-06-10 23:00:00 18.9 17 Oeste 31 Oeste 0 -- -- 72
2019-06-10 22:00:00 19.5 21 Oeste 32 Oeste 0 -- -- 71
2019-06-10 21:00:00 20.5 17 Oeste 44 Oeste 0 -- -- 68
2019-06-10 20:00:00 21.5 26 Oeste 40 Sudoeste 0 -- -- 61
2019-06-10 19:00:00 21.4 15 Oeste 39 Oeste 0 -- -- 66
2019-06-10 18:00:00 22.6 19 Oeste 42 Sudoeste 0 -- -- 58
2019-06-10 17:00:00 21.3 13 Oeste 30 Oeste 0 -- -- 66
2019-06-10 16:00:00 20.1 15 Oeste 33 Sudoeste 0 -- -- 74
2019-06-10 15:00:00 19 23 Oeste 45 Sudoeste 0 -- -- 79
2019-06-10 14:00:00 18.6 37 Sudoeste 47 Sudoeste 0 -- -- 79
2019-06-10 13:00:00 18.5 32 Sudoeste 41 Sudoeste 0 -- -- 79
2019-06-10 12:00:00 19.1 22 Oeste 38 Oeste 0 -- -- 72
2019-06-10 11:00:00 18.7 16 Oeste 24 Oeste 0 -- -- 74
2019-06-10 10:00:00 17.9 17 Oeste 30 Sudoeste 0 -- -- 81
2019-06-10 09:00:00 17.9 15 Sudoeste 22 Sudoeste 0 -- -- 82
2019-06-10 08:00:00 17.6 12 Oeste 14 Oeste 0 -- -- 79
2019-06-10 07:00:00 16.7 5 Oeste 9 Sudoeste 0 -- -- 83
2019-06-10 06:00:00 17 3 Noroeste 15 Oeste 0 -- -- 81
2019-06-10 05:00:00 17.4 12 Oeste 18 Oeste 0 -- -- 81
2019-06-10 04:00:00 17.2 11 Oeste 18 Oeste 0 -- -- 78
2019-06-10 03:00:00 17.7 9 Oeste 27 Sudoeste 0 -- -- 78
2019-06-10 02:00:00 18.6 14 Oeste 24 Oeste 0 -- -- 74
2019-06-10 01:00:00 17.8 3 Noroeste 24 Oeste 0 -- -- 73
2019-06-10 00:00:00 18.7 24 Oeste 37 Oeste 0 -- -- 69
2019-06-09 23:00:00 19.6 25 Oeste 37 Oeste 0 -- -- 63
2019-06-09 22:00:00 20.6 25 Oeste 46 Oeste 0 -- -- 57
2019-06-09 21:00:00 21.6 26 Oeste 50 Sudoeste 0 -- -- 56
2019-06-09 20:00:00 22.7 20 Oeste 30 Sudoeste 0 -- -- 50
2019-06-09 19:00:00 20.3 21 Sudoeste 40 Sudoeste 0 -- -- 72
2019-06-09 18:00:00 20.5 27 Sudoeste 41 Sudoeste 0 -- -- 71
2019-06-09 17:00:00 20.3 31 Sudoeste 45 Sudoeste 0 -- -- 67
2019-06-09 16:00:00 20.6 28 Sudoeste 41 Sudoeste 0 -- -- 69
2019-06-09 15:00:00 20.8 19 Sudoeste 25 Sudoeste 0 -- -- 71
2019-06-09 14:00:00 20 13 Oeste 17 Oeste 0 -- -- 78
2019-06-09 13:00:00 19.5 9 Oeste 17 Sudoeste 0 -- -- 86
2019-06-09 12:00:00 19.1 14 Sudoeste 17 Sudoeste 0 -- -- 86
2019-06-09 11:00:00 19.6 11 Oeste 15 Oeste 0 -- -- 82
2019-06-09 10:00:00 19 14 Oeste 15 Oeste 0 -- -- 82
2019-06-09 09:00:00 18.6 12 Oeste 14 Oeste 0 -- -- 85
2019-06-09 08:00:00 19.2 0 Calma 2 Este 0 -- -- 84
2019-06-09 07:00:00 19.5 0 Calma 6 Norte 0 -- -- 82
2019-06-09 06:00:00 19.9 4 Norte 9 Nordeste 0 -- -- 81
2019-06-09 05:00:00 20 5 Norte 8 Nordeste 0 -- -- 80
2019-06-09 04:00:00 20 6 Nordeste 12 Nordeste 0 -- -- 81
2019-06-09 03:00:00 19.7 9 Este 14 Nordeste 0 -- -- 81
2019-06-09 02:00:00 20.8 6 Nordeste 15 Nordeste 0 -- -- 77
2019-06-09 01:00:00 20.8 10 Nordeste 15 Norte 0 -- -- 77
2019-06-09 00:00:00 20.7 8 Nordeste 12 Nordeste 0 -- -- 77
2019-06-08 23:00:00 21 8 Nordeste 19 Nordeste 0 -- -- 75
2019-06-08 22:00:00 21.1 13 Nordeste 23 Nordeste 0 -- -- 74
2019-06-08 21:00:00 20.9 18 Este 22 Este 0 -- -- 75
2019-06-08 20:00:00 21.4 17 Este 23 Nordeste 0 -- -- 74
2019-06-08 19:00:00 22.7 16 Este 24 Nordeste 0 -- -- 69
2019-06-08 18:00:00 22.7 17 Este 35 Nordeste 0 -- -- 69
2019-06-08 17:00:00 22.4 27 Nordeste 40 Este 0 -- -- 70
2019-06-08 16:00:00 21.4 33 Este 42 Este 0 -- -- 70
2019-06-08 15:00:00 21.7 31 Este 38 Este 0 -- -- 66
2019-06-08 14:00:00 21.5 30 Este 39 Este 0 -- -- 69
2019-06-08 13:00:00 22.1 24 Nordeste 41 Nordeste 0 -- -- 64
2019-06-08 12:00:00 21.4 31 Nordeste 41 Nordeste 0 -- -- 64
2019-06-08 11:00:00 20.2 36 Este 41 Este 0 -- -- 70
2019-06-08 10:00:00 21.9 26 Nordeste 37 Nordeste 0 -- -- 57
2019-06-08 09:00:00 21.5 26 Nordeste 38 Nordeste 0 -- -- 59
2019-06-08 08:00:00 20.3 24 Nordeste 38 Nordeste 0 -- -- 64
2019-06-08 07:00:00 19.5 25 Nordeste 39 Nordeste 0 -- -- 64
2019-06-08 06:00:00 18.6 23 Nordeste 36 Nordeste 0 -- -- 78
2019-06-08 05:00:00 18.9 19 Nordeste 30 Nordeste 0 -- -- 67
2019-06-08 04:00:00 17.6 9 Oeste 15 Noroeste 0 -- -- 72
2019-06-08 03:00:00 17.2 7 Oeste 12 Oeste 0 -- -- 75
2019-06-08 02:00:00 18.4 8 Oeste 22 Oeste 0 -- -- 77
2019-06-08 01:00:00 18.7 12 Oeste 21 Oeste 0 -- -- 68
2019-06-08 00:00:00 18.2 9 Sudoeste 13 Sudoeste 0 -- -- 78
2019-06-07 23:00:00 18.8 9 Oeste 12 Sudoeste 0 -- -- 73
2019-06-07 22:00:00 19.4 11 Oeste 17 Oeste 0 -- -- 77
2019-06-07 21:00:00 20.1 15 Oeste 19 Oeste 0 -- -- 70
2019-06-07 20:00:00 20.1 10 Sudoeste 18 Oeste 0 -- -- 71
2019-06-07 19:00:00 20.4 10 Sudoeste 18 Oeste 0 -- -- 69
2019-06-07 18:00:00 20.1 10 Oeste 16 Oeste 0 -- -- 68
2019-06-07 17:00:00 19.7 11 Oeste 19 Oeste 0 -- -- 72
2019-06-07 16:00:00 19.6 11 Oeste 22 Oeste 0 -- -- 75
2019-06-07 15:00:00 19.4 15 Sudoeste 30 Sudoeste 0 -- -- 77
2019-06-07 14:00:00 18.9 21 Sudoeste 25 Sudoeste 0 -- -- 79
2019-06-07 13:00:00 18.8 15 Sudoeste 21 Sudoeste 0 -- -- 82
2019-06-07 12:00:00 19.2 10 Oeste 24 Oeste 0 -- -- 80
2019-06-07 11:00:00 18.3 18 Oeste 28 Oeste 0 -- -- 83
2019-06-07 10:00:00 18.2 25 Oeste 33 Oeste 0 -- -- 82
2019-06-07 09:00:00 18.6 20 Oeste 26 Oeste 0 -- -- 74
2019-06-07 08:00:00 18.5 2 Norte 5 Nordeste 0 -- -- 75
2019-06-07 07:00:00 17 2 Norte 23 Sudoeste 0 -- -- 77
2019-06-07 06:00:00 17.9 18 Sudoeste 26 Sudoeste 0 -- -- 74
2019-06-07 05:00:00 17.5 4 Sur 26 Oeste 0 -- -- 69
2019-06-07 04:00:00 17.3 10 Oeste 26 Oeste 0 -- -- 68
2019-06-07 03:00:00 16.8 3 Oeste 10 Oeste 0 -- -- 70
2019-06-07 02:00:00 17.4 8 Oeste 33 Sudoeste 0 -- -- 69
2019-06-07 01:00:00 17.8 32 Oeste 43 Oeste 0 -- -- 74
2019-06-07 00:00:00 18.1 29 Oeste 37 Oeste 0 -- -- 72
2019-06-06 23:00:00 19 6 Noroeste 37 Sudoeste 0 -- -- 60
2019-06-06 22:00:00 19.4 32 Sudoeste 40 Sudoeste 0 -- -- 60
2019-06-06 21:00:00 21.4 27 Oeste 46 Oeste 0 -- -- 51
2019-06-06 20:00:00 22.5 29 Oeste 45 Oeste 0 -- -- 45
2019-06-06 19:00:00 23.9 2 Sur 7 Nordeste 0 -- -- 49
2019-06-06 18:00:00 22 5 Sudoeste 21 Sudoeste 0 -- -- 59
2019-06-06 17:00:00 20.7 15 Oeste 19 Oeste 0 -- -- 57
2019-06-06 16:00:00 20 12 Oeste 20 Oeste 0 -- -- 65
2019-06-06 15:00:00 19.5 14 Oeste 17 Oeste 0 -- -- 69
2019-06-06 14:00:00 19.1 11 Oeste 17 Oeste 0 -- -- 71
2019-06-06 13:00:00 19 12 Oeste 15 Sudoeste 0 -- -- 77
2019-06-06 12:00:00 18.6 12 Oeste 16 Sudoeste 0 -- -- 77
2019-06-06 11:00:00 18.8 14 Sudoeste 15 Sudoeste 0 -- -- 72
2019-06-06 10:00:00 17.9 12 Oeste 15 Sudoeste 0 -- -- 78
2019-06-06 09:00:00 18 14 Sudoeste 21 Sudoeste 0 -- -- 82
2019-06-06 08:00:00 17.5 13 Sudoeste 27 Sudoeste 0 -- -- 82
2019-06-06 07:00:00 17.1 15 Sudoeste 21 Sudoeste 0 -- -- 81
2019-06-06 06:00:00 16.2 5 Oeste 11 Oeste 0 -- -- 77
2019-06-06 05:00:00 16.6 8 Oeste 14 Oeste 0 -- -- 76
2019-06-06 04:00:00 16.7 9 Oeste 12 Oeste 0 -- -- 75
2019-06-06 03:00:00 17.1 6 Oeste 10 Oeste 0 -- -- 74
2019-06-06 02:00:00 17.4 6 Noroeste 15 Oeste 0 -- -- 73
2019-06-06 01:00:00 18 12 Oeste 18 Oeste 0 -- -- 72
2019-06-06 00:00:00 18.3 8 Oeste 16 Oeste 0 -- -- 71
2019-06-05 23:00:00 19.2 13 Oeste 28 Oeste 0 -- -- 69
2019-06-05 22:00:00 20 13 Oeste 32 Sudoeste 0 -- -- 64
2019-06-05 21:00:00 20 22 Sudoeste 33 Sudoeste 0 -- -- 71
2019-06-05 20:00:00 20.1 15 Sudoeste 29 Sudoeste 0 -- -- 71
2019-06-05 19:00:00 19.7 26 Sudoeste 35 Sur 0 -- -- 71
2019-06-05 18:00:00 19.7 28 Sur 36 Sur 0 -- -- 72
2019-06-05 17:00:00 19.7 27 Sur 35 Sur 0 -- -- 72
2019-06-05 16:00:00 19.7 28 Sudoeste 33 Sudoeste 0 -- -- 69
2019-06-05 15:00:00 20.3 21 Sudoeste 24 Sudoeste 0 -- -- 65
2019-06-05 14:00:00 20.1 12 Sudoeste 23 Sudoeste 0 -- -- 55
2019-06-05 13:00:00 19.4 19 Sur 22 Sudoeste 0 -- -- 60
2019-06-05 12:00:00 19.5 17 Sur 24 Sudeste 0 -- -- 58
2019-06-05 11:00:00 22.9 9 Nordeste 25 Norte 0 -- -- 40
2019-06-05 10:00:00 21.7 16 Norte 36 Noroeste 0 -- -- 33
2019-06-05 09:00:00 20.8 22 Norte 39 Norte 0 -- -- 36
2019-06-05 08:00:00 18.8 16 Norte 27 Norte 0 -- -- 60
2019-06-05 07:00:00 18.2 4 Norte 34 Sudoeste 0 -- -- 76
2019-06-05 06:00:00 19 24 Oeste 33 Oeste 0 -- -- 75
2019-06-05 05:00:00 18.9 24 Oeste 36 Oeste 0 -- -- 83
2019-06-05 04:00:00 18.6 13 Oeste 38 Sudoeste 0 -- -- 86
2019-06-05 03:00:00 18.9 19 Oeste 29 Oeste 0 -- -- 85
2019-06-05 02:00:00 18.9 11 Oeste 45 Sudoeste 0 -- -- 84
2019-06-05 01:00:00 19 40 Sudoeste 47 Sudoeste 0 -- -- 83
2019-06-05 00:00:00 20.1 23 Oeste 50 Oeste 0 -- -- 76
2019-06-04 23:00:00 20.3 13 Oeste 24 Oeste 0 -- -- 76
2019-06-04 22:00:00 21 10 Oeste 40 Sudoeste 0 -- -- 72
2019-06-04 21:00:00 21 26 Oeste 48 Oeste 0 -- -- 73
2019-06-04 20:00:00 23 27 Oeste 46 Oeste 0 -- -- 61
2019-06-04 19:00:00 23.9 29 Oeste 58 Sudoeste 0 -- -- 59
2019-06-04 18:00:00 24.3 28 Oeste 40 Oeste 0 -- -- 58
2019-06-04 17:00:00 23.3 18 Oeste 24 Sudoeste 0 -- -- 67
2019-06-04 16:00:00 22.5 16 Oeste 19 Oeste 0 -- -- 71
2019-06-04 15:00:00 21.8 13 Sudoeste 17 Sudoeste 0 -- -- 71
2019-06-04 14:00:00 21.8 12 Oeste 14 Oeste 0 -- -- 67
2019-06-04 13:00:00 20.6 11 Sudoeste 17 Oeste 0 -- -- 64
2019-06-04 12:00:00 20.2 14 Oeste 31 Sur 0 -- -- 72
2019-06-04 11:00:00 20.1 19 Sudoeste 31 Sur 0 -- -- 76
2019-06-04 10:00:00 19.5 12 Oeste 18 Oeste 0 -- -- 75
2019-06-04 09:00:00 19.4 13 Oeste 16 Oeste 0 -- -- 68
2019-06-04 08:00:00 18.1 9 Oeste 13 Oeste 0 -- -- 60
2019-06-04 07:00:00 17.4 9 Oeste 12 Oeste 0 -- -- 62
2019-06-04 06:00:00 17.2 4 Oeste 8 Noroeste 0 -- -- 65
2019-06-04 05:00:00 18.4 6 Noroeste 12 Noroeste 0 -- -- 62
2019-06-04 04:00:00 18 9 Noroeste 14 Noroeste 0 -- -- 66
2019-06-04 03:00:00 18.2 7 Noroeste 10 Noroeste 0 -- -- 68
2019-06-04 02:00:00 18.3 6 Oeste 8 Oeste 0 -- -- 69
2019-06-04 01:00:00 18.8 5 Noroeste 8 Noroeste 0 -- -- 68
2019-06-04 00:00:00 18.8 0 Calma 7 Noroeste 0 -- -- 72
2019-06-03 23:00:00 19.8 4 Noroeste 7 Noroeste 0 -- -- 75
2019-06-03 22:00:00 20.4 5 Oeste 7 Oeste 0 -- -- 77
2019-06-03 21:00:00 22.8 0 Calma 4 Sur 0 -- -- 69
2019-06-03 20:00:00 23.6 2 Sudoeste 7 Sur 0 -- -- 66
2019-06-03 19:00:00 24 3 Sudeste 6 Sudeste 0 -- -- 64
2019-06-03 18:00:00 23.4 4 Sur 7 Sudeste 0 -- -- 67
2019-06-03 17:00:00 22.9 5 Sudeste 8 Sudeste 0 -- -- 70
2019-06-03 16:00:00 23 5 Sur 8 Sudeste 0 -- -- 70
2019-06-03 15:00:00 22.2 6 Sudeste 9 Sudeste 0 -- -- 73
2019-06-03 14:00:00 22.3 6 Sudeste 9 Sudeste 0 -- -- 73
2019-06-03 13:00:00 21.9 7 Sudeste 9 Sudeste 0 -- -- 73
2019-06-03 12:00:00 22.3 5 Sur 7 Sur 0 -- -- 71
2019-06-03 11:00:00 21.4 4 Sudoeste 10 Oeste 0 -- -- 71
2019-06-03 10:00:00 20.3 9 Oeste 10 Oeste 0 -- -- 69
2019-06-03 09:00:00 20.9 6 Sudoeste 10 Oeste 0 -- -- 54
2019-06-03 08:00:00 18.6 8 Oeste 12 Oeste 0 -- -- 46
2019-06-03 07:00:00 17.8 0 Calma 6 Nordeste 0 -- -- 46
2019-06-03 06:00:00 17.7 2 Nordeste 6 Nordeste 0 -- -- 50
2019-06-03 05:00:00 17.6 0 Calma 6 Oeste 0 -- -- 55
2019-06-03 04:00:00 18.5 0 Calma 5 Noroeste 0 -- -- 53
2019-06-03 03:00:00 18.5 0 Calma 4 Sudoeste 0 -- -- 51
2019-06-03 02:00:00 19.3 0 Calma 6 Nordeste 0 -- -- 60
2019-06-03 01:00:00 19 4 Nordeste 4 Nordeste 0 -- -- 70
2019-06-03 00:00:00 19.2 0 Calma 3 Norte 0 -- -- 69
2019-06-02 23:00:00 19.9 0 Calma 4 Sudeste 0 -- -- 65
2019-06-02 22:00:00 21.1 3 Sudoeste 12 Este 0 -- -- 68
2019-06-02 21:00:00 21.8 9 Este 14 Este 0 -- -- 62
2019-06-02 20:00:00 21.8 13 Este 18 Este 0 -- -- 59
2019-06-02 19:00:00 22.2 10 Este 14 Este 0 -- -- 61
2019-06-02 18:00:00 22.1 9 Este 13 Este 0 -- -- 61
2019-06-02 17:00:00 24 11 Este 15 Este 0 -- -- 53
2019-06-02 16:00:00 21.8 11 Este 15 Este 0 -- -- 63
2019-06-02 15:00:00 21.5 12 Este 14 Sudeste 0 -- -- 65
2019-06-02 14:00:00 21.9 12 Sudeste 17 Sudeste 0 -- -- 64
2019-06-02 13:00:00 21.8 14 Sudeste 17 Sudeste 0 -- -- 61
2019-06-02 12:00:00 21.9 15 Este 18 Este 0 -- -- 59
2019-06-02 11:00:00 21.5 14 Este 16 Este 0 -- -- 61
2019-06-02 10:00:00 22.1 14 Este 25 Nordeste 0 -- -- 55
2019-06-02 09:00:00 22.7 14 Nordeste 17 Nordeste 0 -- -- 42
2019-06-02 08:00:00 20.7 8 Nordeste 10 Nordeste 0 -- -- 51
2019-06-02 07:00:00 18.3 7 Norte 12 Norte 0 -- -- 62
2019-06-02 06:00:00 18.7 7 Norte 14 Nordeste 0 -- -- 60
2019-06-02 05:00:00 19.6 10 Nordeste 15 Nordeste 0 -- -- 56
2019-06-02 04:00:00 19.8 8 Norte 14 Nordeste 0 -- -- 52
2019-06-02 03:00:00 19.7 5 Norte 18 Nordeste 0 -- -- 55
2019-06-02 02:00:00 20.5 11 Norte 19 Norte 0 -- -- 53
2019-06-02 01:00:00 20.7 10 Nordeste 20 Nordeste 0 -- -- 50
2019-06-02 00:00:00 21.1 11 Nordeste 18 Nordeste 0 -- -- 48
2019-06-01 23:00:00 21 10 Nordeste 20 Nordeste 0 -- -- 50
2019-06-01 22:00:00 21.4 10 Nordeste 23 Nordeste 0 -- -- 47
2019-06-01 21:00:00 22.4 16 Este 26 Nordeste 0 -- -- 60
2019-06-01 20:00:00 22.9 18 Este 29 Este 0 -- -- 55
2019-06-01 19:00:00 23 19 Este 28 Este 0 -- -- 54
2019-06-01 18:00:00 22.9 22 Este 27 Este 0 -- -- 54
2019-06-01 17:00:00 23.1 20 Este 30 Este 0 -- -- 52
2019-06-01 16:00:00 22.9 19 Este 22 Este 0 -- -- 54
2019-06-01 15:00:00 23.6 18 Este 31 Este 0 -- -- 49
2019-06-01 14:00:00 23.1 22 Este 28 Este 0 -- -- 48
2019-06-01 13:00:00 22.3 13 Este 23 Este 0 -- -- 57
2019-06-01 12:00:00 22.7 17 Este 31 Este 0 -- -- 53
2019-06-01 11:00:00 22.5 22 Este 34 Nordeste 0 -- -- 50
2019-06-01 10:00:00 22.3 19 Este 27 Nordeste 0 -- -- 51
2019-06-01 09:00:00 21.9 14 Nordeste 24 Nordeste 0 -- -- 50
2019-06-01 08:00:00 20.2 6 Norte 16 Nordeste 0 -- -- 56
2019-06-01 07:00:00 18.5 9 Norte 18 Norte 0 -- -- 68
2019-06-01 06:00:00 18.2 6 Norte 14 Nordeste 0 -- -- 74
2019-06-01 05:00:00 18.6 6 Norte 15 Nordeste 0 -- -- 73
2019-06-01 04:00:00 18.6 8 Nordeste 13 Nordeste 0 -- -- 73
2019-06-01 03:00:00 18.7 8 Nordeste 15 Nordeste 0 -- -- 72
2019-06-01 02:00:00 19.2 10 Nordeste 13 Nordeste 0 -- -- 71
2019-06-01 01:00:00 18.8 2 Norte 4 Norte 0 -- -- 73
2019-06-01 00:00:00 19.3 0 Calma 9 Este 0 -- -- 71
2019-05-31 23:00:00 19.9 6 Sudeste 16 Este 0 -- -- 70
2019-05-31 22:00:00 20.3 12 Sudeste 17 Este 0 -- -- 70
2019-05-31 21:00:00 20.9 13 Este 26 Este 0 -- -- 64
2019-05-31 20:00:00 22 20 Nordeste 34 Este 0 -- -- 55
2019-05-31 19:00:00 22.2 24 Este 32 Este 0 -- -- 54
2019-05-31 18:00:00 22.7 19 Este 29 Nordeste 0 -- -- 58
2019-05-31 17:00:00 23 23 Este 34 Este 0 -- -- 55
2019-05-31 16:00:00 22.7 27 Este 44 Nordeste 0 -- -- 57
2019-05-31 15:00:00 22.1 32 Nordeste 44 Nordeste 0 -- -- 56
2019-05-31 14:00:00 22.3 26 Nordeste 41 Nordeste 0 -- -- 55
2019-05-31 13:00:00 22.4 24 Este 38 Este 0 -- -- 52
2019-05-31 12:00:00 22.1 23 Este 38 Nordeste 0 -- -- 53
2019-05-31 11:00:00 22 23 Nordeste 36 Nordeste 0 -- -- 53
2019-05-31 10:00:00 21.9 17 Este 28 Nordeste 0 -- -- 58
2019-05-31 09:00:00 21.8 12 Nordeste 18 Nordeste 0 -- -- 54
2019-05-31 08:00:00 20.2 6 Nordeste 15 Nordeste 0 -- -- 62
2019-05-31 07:00:00 18 6 Norte 16 Nordeste 0 -- -- 69
2019-05-31 06:00:00 18.4 10 Nordeste 21 Nordeste 0 -- -- 68
2019-05-31 05:00:00 18.6 12 Nordeste 20 Nordeste 0 -- -- 67
2019-05-31 04:00:00 18.6 13 Nordeste 23 Nordeste 0 -- -- 72
2019-05-31 03:00:00 18.9 17 Nordeste 25 Nordeste 0 -- -- 67
2019-05-31 02:00:00 19 14 Nordeste 25 Nordeste 0 -- -- 65
2019-05-31 01:00:00 19.3 15 Nordeste 25 Nordeste 0 -- -- 63
2019-05-31 00:00:00 19.6 17 Nordeste 26 Nordeste 0 -- -- 60
2019-05-30 23:00:00 19.6 14 Nordeste 26 Nordeste 0 -- -- 60
2019-05-30 22:00:00 19.8 17 Nordeste 33 Nordeste 0 -- -- 62
2019-05-30 21:00:00 20.7 19 Nordeste 32 Nordeste 0 -- -- 59
2019-05-30 20:00:00 21.4 22 Este 33 Nordeste 0 -- -- 59
2019-05-30 19:00:00 21.4 25 Este 37 Nordeste 0 -- -- 65
2019-05-30 18:00:00 21.5 28 Este 36 Nordeste 0 -- -- 65
2019-05-30 17:00:00 21.8 26 Este 31 Este 0 -- -- 65
2019-05-30 16:00:00 21.8 26 Este 32 Este 0 -- -- 63
2019-05-30 15:00:00 21.1 27 Nordeste 43 Este 0 -- -- 66
2019-05-30 14:00:00 21.1 32 Este 41 Este 0 -- -- 65
2019-05-30 13:00:00 21.3 30 Este 39 Este 0 -- -- 67
2019-05-30 12:00:00 21 30 Nordeste 41 Este 0 -- -- 70
2019-05-30 11:00:00 20.8 29 Nordeste 35 Este 0 -- -- 71
2019-05-30 10:00:00 20.4 29 Nordeste 36 Este 0 -- -- 75
2019-05-30 09:00:00 19.8 24 Nordeste 34 Nordeste 0 -- -- 74
2019-05-30 08:00:00 19.1 15 Nordeste 24 Nordeste 0 -- -- 72
2019-05-30 07:00:00 18.4 16 Nordeste 26 Nordeste 0 -- -- 74
2019-05-30 06:00:00 18.4 13 Nordeste 29 Nordeste 0 -- -- 77
2019-05-30 05:00:00 18.8 20 Nordeste 31 Nordeste 0 -- -- 72
2019-05-30 04:00:00 18.9 19 Nordeste 26 Nordeste 0 -- -- 72
2019-05-30 03:00:00 18.9 17 Nordeste 25 Nordeste 0 -- -- 73
2019-05-30 02:00:00 19.1 19 Nordeste 28 Nordeste 0 -- -- 74
2019-05-30 01:00:00 19.2 18 Nordeste 28 Nordeste 0 -- -- 75
2019-05-30 00:00:00 19.3 18 Nordeste 27 Nordeste 0 -- -- 78
2019-05-29 23:00:00 19.6 22 Nordeste 31 Nordeste 0 -- -- 77
2019-05-29 22:00:00 20 20 Nordeste 31 Nordeste 0 -- -- 71
2019-05-29 21:00:00 20.9 22 Nordeste 33 Nordeste 0 -- -- 66
2019-05-29 20:00:00 21.8 22 Nordeste 31 Este 0 -- -- 63
2019-05-29 19:00:00 22.1 23 Este 32 Este 0 -- -- 66
2019-05-29 18:00:00 22.3 22 Este 29 Este 0 -- -- 65
2019-05-29 17:00:00 23.5 18 Nordeste 22 Este 0 -- -- 59
2019-05-29 16:00:00 22.8 18 Este 24 Este 0 -- -- 64
2019-05-29 15:00:00 23.1 17 Este 22 Este 0 -- -- 60
2019-05-29 14:00:00 23.5 20 Este 27 Nordeste 0 -- -- 55
2019-05-29 13:00:00 23.8 19 Este 33 Este 0 -- -- 49
2019-05-29 12:00:00 23.5 23 Nordeste 33 Este 0 -- -- 51
2019-05-29 11:00:00 23.1 26 Nordeste 41 Nordeste 0 -- -- 51
2019-05-29 10:00:00 22.7 28 Nordeste 41 Este 0 -- -- 55
2019-05-29 09:00:00 22.1 23 Nordeste 33 Nordeste 0 -- -- 68
2019-05-29 08:00:00 20.8 16 Nordeste 23 Nordeste 0 -- -- 76
2019-05-29 07:00:00 20.1 15 Nordeste 26 Nordeste 0 -- -- 77
2019-05-29 06:00:00 19.9 15 Nordeste 32 Nordeste 0 -- -- 80
2019-05-29 05:00:00 20.2 22 Nordeste 32 Nordeste 0 -- -- 74
2019-05-29 04:00:00 20 21 Nordeste 33 Nordeste 0 -- -- 85
2019-05-29 03:00:00 19.9 24 Nordeste 36 Nordeste 0 -- -- 87
2019-05-29 02:00:00 20.1 18 Nordeste 25 Nordeste 0 -- -- 85
2019-05-29 01:00:00 20.3 18 Nordeste 27 Nordeste 0 -- -- 80
2019-05-29 00:00:00 20.4 16 Nordeste 22 Nordeste 0 -- -- 75
2019-05-28 23:00:00 20.5 17 Nordeste 26 Nordeste 0 -- -- 80
2019-05-28 22:00:00 21 17 Nordeste 25 Este 0 -- -- 80
2019-05-28 21:00:00 21.1 24 Este 27 Este 0 -- -- 82
2019-05-28 20:00:00 21.8 26 Este 27 Este 0 -- -- 77
2019-05-28 19:00:00 22.2 24 Este 26 Este 0 -- -- 74
2019-05-28 18:00:00 22.3 23 Este 26 Este 0 -- -- 73
2019-05-28 17:00:00 22.6 23 Este 26 Este 0 -- -- 73
2019-05-28 16:00:00 22.8 21 Este 22 Este 0 -- -- 73
2019-05-28 15:00:00 22.4 17 Este 20 Este 0 -- -- 74
2019-05-28 14:00:00 21.9 19 Este 26 Este 0 -- -- 78
2019-05-28 13:00:00 21.6 25 Este 27 Este 0 -- -- 78
2019-05-28 12:00:00 21.2 17 Este 19 Este 0 -- -- 80
2019-05-28 11:00:00 20.9 14 Este 20 Este 0 -- -- 78
2019-05-28 10:00:00 21.2 17 Este 20 Este 0 -- -- 77
2019-05-28 09:00:00 22.2 3 Este 7 Este 0 -- -- 69
2019-05-28 08:00:00 19.9 0 Calma 13 Nordeste 0 -- -- 80
2019-05-28 07:00:00 18.8 7 Nordeste 9 Nordeste 0 -- -- 84
2019-05-28 06:00:00 18.3 3 Nordeste 5 Nordeste 0 -- -- 80
2019-05-28 05:00:00 18.4 0 Calma 14 Este 0 -- -- 79
2019-05-28 04:00:00 18.6 14 Este 17 Este 0 -- -- 81
2019-05-28 03:00:00 19 7 Nordeste 9 Nordeste 0 -- -- 81
2019-05-28 02:00:00 19.2 8 Este 18 Este 0 -- -- 81
2019-05-28 01:00:00 19.6 15 Este 22 Este 0 -- -- 79
2019-05-28 00:00:00 19.6 18 Este 22 Este 0 -- -- 77
2019-05-27 23:00:00 20.2 0 Calma 11 Oeste 0 -- -- 70
2019-05-27 22:00:00 20.6 9 Oeste 18 Oeste 0 -- -- 66
2019-05-27 21:00:00 20.8 16 Oeste 21 Oeste 0 -- -- 73
2019-05-27 20:00:00 21.1 19 Oeste 24 Oeste 0 -- -- 75
2019-05-27 19:00:00 21.5 20 Oeste 24 Oeste 0 -- -- 76
2019-05-27 18:00:00 21.6 15 Oeste 18 Oeste 0 -- -- 75
2019-05-27 17:00:00 21.8 13 Oeste 15 Oeste 0 -- -- 70
2019-05-27 16:00:00 21.4 14 Oeste 15 Oeste 0 -- -- 75
2019-05-27 15:00:00 21 11 Oeste 13 Oeste 0 -- -- 75
2019-05-27 14:00:00 20.2 13 Oeste 16 Oeste 0 -- -- 76
2019-05-27 13:00:00 20.1 12 Oeste 13 Sudoeste 0 -- -- 75
2019-05-27 12:00:00 19.8 12 Sudoeste 13 Oeste 0 -- -- 74
2019-05-27 11:00:00 19.7 9 Oeste 10 Oeste 0 -- -- 76
2019-05-27 10:00:00 19.5 6 Sudoeste 7 Sudoeste 0 -- -- 71
2019-05-27 09:00:00 19.5 3 Sudoeste 6 Sudoeste 0 -- -- 69
2019-05-27 08:00:00 18.1 4 Oeste 11 Noroeste 0 -- -- 66
2019-05-27 07:00:00 16.6 4 Oeste 11 Oeste 0 -- -- 70
2019-05-27 06:00:00 18.3 8 Noroeste 10 Noroeste 0 -- -- 62
2019-05-27 05:00:00 17.8 6 Noroeste 9 Noroeste 0 -- -- 67
2019-05-27 04:00:00 17.8 5 Noroeste 6 Norte 0 -- -- 70
2019-05-27 03:00:00 18 0 Calma 5 Norte 0 -- -- 71
2019-05-27 02:00:00 18.5 4 Norte 9 Norte 0 -- -- 67
2019-05-27 01:00:00 18.8 6 Noroeste 8 Noroeste 0 -- -- 65
2019-05-27 00:00:00 19.1 3 Noroeste 9 Noroeste 0 -- -- 68
2019-05-26 23:00:00 19.2 0 Calma 10 Oeste 0 -- -- 74
2019-05-26 22:00:00 19.9 8 Oeste 10 Oeste 0 -- -- 76
2019-05-26 21:00:00 21.2 5 Oeste 5 Oeste 0 -- -- 71
2019-05-26 20:00:00 24.1 0 Calma 4 Sudoeste 0 -- -- 60
2019-05-26 19:00:00 24.1 0 Calma 4 Sudoeste 0 -- -- 59
2019-05-26 18:00:00 24.5 0 Calma 5 Sudoeste 0 -- -- 57
2019-05-26 17:00:00 23.2 3 Sur 5 Sudoeste 0 -- -- 62
2019-05-26 16:00:00 22.4 3 Este 7 Este 0 -- -- 62
2019-05-26 15:00:00 21.9 5 Este 9 Nordeste 0 -- -- 65
2019-05-26 14:00:00 21.4 7 Este 12 Este 0 -- -- 67
2019-05-26 13:00:00 20.7 11 Este 15 Este 0 -- -- 66
2019-05-26 12:00:00 20.8 15 Este 22 Este 0 -- -- 63
2019-05-26 11:00:00 20.6 20 Este 22 Este 0 -- -- 62
2019-05-26 10:00:00 21 18 Este 22 Este 0 -- -- 56
2019-05-26 09:00:00 21.7 13 Nordeste 18 Nordeste 0 -- -- 46
2019-05-26 08:00:00 19.9 8 Norte 13 Norte 0 -- -- 51
2019-05-26 07:00:00 17.9 9 Nordeste 17 Nordeste 0 -- -- 57
2019-05-26 06:00:00 17.9 12 Norte 16 Norte 0 -- -- 61
2019-05-26 05:00:00 17.2 7 Nordeste 11 Nordeste 0 -- -- 68
2019-05-26 04:00:00 17.6 8 Norte 11 Nordeste 0 -- -- 68
2019-05-26 03:00:00 17.6 3 Nordeste 5 Oeste 0 -- -- 78
2019-05-26 02:00:00 18.1 3 Norte 13 Nordeste 0 -- -- 74
2019-05-26 01:00:00 18.6 9 Nordeste 15 Nordeste 0 -- -- 73
2019-05-26 00:00:00 18.7 8 Nordeste 17 Nordeste 0 -- -- 80
2019-05-25 23:00:00 18.8 12 Nordeste 23 Nordeste 0 -- -- 80
2019-05-25 22:00:00 18.9 16 Este 18 Este 0 -- -- 81
2019-05-25 21:00:00 19.5 14 Este 16 Este 0 -- -- 76
2019-05-25 20:00:00 20.2 13 Este 15 Este 0 -- -- 74
2019-05-25 19:00:00 21.5 8 Este 10 Este 0 -- -- 71
2019-05-25 18:00:00 21 7 Este 10 Este 0 -- -- 71
2019-05-25 17:00:00 21.6 7 Este 9 Este 0 -- -- 68
2019-05-25 16:00:00 20.7 7 Este 10 Este 0 -- -- 70
2019-05-25 15:00:00 21.3 9 Este 12 Este 0 -- -- 64
2019-05-25 14:00:00 20.4 11 Este 14 Nordeste 0 -- -- 68
2019-05-25 13:00:00 20.7 10 Este 16 Este 0 -- -- 69
2019-05-25 12:00:00 20.4 13 Este 17 Este 0 -- -- 68
2019-05-25 11:00:00 19.9 14 Este 20 Este 0 -- -- 68
2019-05-25 10:00:00 20 16 Este 19 Nordeste 0 -- -- 63
2019-05-25 09:00:00 19.8 8 Nordeste 14 Nordeste 0 -- -- 66
2019-05-25 08:00:00 19 9 Nordeste 13 Nordeste 0 -- -- 70
2019-05-25 07:00:00 18.6 10 Nordeste 20 Nordeste 0 -- -- 73
2019-05-25 06:00:00 18.8 15 Nordeste 27 Nordeste 0 -- -- 73
2019-05-25 05:00:00 18.6 15 Nordeste 30 Nordeste 0 -- -- 76
2019-05-25 04:00:00 18.7 23 Nordeste 37 Nordeste 0 -- -- 77
2019-05-25 03:00:00 19.2 26 Nordeste 41 Nordeste 0 -- -- 77
2019-05-25 02:00:00 19.4 27 Nordeste 58 Nordeste 0 -- -- 78
2019-05-25 01:00:00 19.5 35 Nordeste 60 Nordeste 0 -- -- 73
2019-05-25 00:00:00 19.9 39 Nordeste 61 Nordeste 0 -- -- 68
2019-05-24 23:00:00 18.5 14 Oeste 19 Oeste 0 -- -- 79
2019-05-24 22:00:00 19.1 15 Oeste 27 Oeste 0 -- -- 77
2019-05-24 21:00:00 19.8 15 Oeste 21 Oeste 0 -- -- 72
2019-05-24 20:00:00 20.4 16 Oeste 29 Oeste 0 -- -- 71
2019-05-24 19:00:00 21.7 13 Oeste 23 Sudoeste 0 -- -- 63
2019-05-24 18:00:00 20.5 15 Sudoeste 31 Sudoeste 0 -- -- 69
2019-05-24 17:00:00 20.5 24 Oeste 43 Sudoeste 0 -- -- 65
2019-05-24 16:00:00 20.3 29 Sudoeste 47 Oeste 0 -- -- 62
2019-05-24 15:00:00 20.7 21 Oeste 36 Oeste 0 -- -- 66
2019-05-24 14:00:00 21.3 19 Oeste 45 Sudoeste 0 -- -- 67
2019-05-24 13:00:00 19.9 21 Oeste 27 Oeste 0 -- -- 72
2019-05-24 12:00:00 18.5 15 Oeste 19 Oeste 0 -- -- 71
2019-05-24 11:00:00 18.1 13 Oeste 16 Oeste 0 -- -- 78
2019-05-24 10:00:00 18.1 10 Oeste 12 Sudoeste 0 -- -- 69
2019-05-24 09:00:00 19.3 4 Oeste 11 Oeste 0 -- -- 65
2019-05-24 08:00:00 18.3 9 Oeste 13 Noroeste 0 -- -- 55
2019-05-24 07:00:00 17.8 6 Noroeste 11 Oeste 0 -- -- 54
2019-05-24 06:00:00 18.1 8 Oeste 10 Noroeste 0 -- -- 50
2019-05-24 05:00:00 17.4 3 Noroeste 6 Oeste 0 -- -- 56
2019-05-24 04:00:00 17.7 0 Calma 9 Oeste 0 -- -- 50
2019-05-24 03:00:00 18.3 5 Oeste 11 Oeste 0 -- -- 56
2019-05-24 02:00:00 18.7 4 Oeste 13 Oeste 0 -- -- 56
2019-05-24 01:00:00 18.5 10 Oeste 12 Oeste 0 -- -- 49
2019-05-24 00:00:00 18.7 7 Oeste 11 Oeste 0 -- -- 62
2019-05-23 23:00:00 19.1 9 Oeste 14 Oeste 0 -- -- 62
2019-05-23 22:00:00 20.2 11 Oeste 14 Oeste 0 -- -- 66
2019-05-23 21:00:00 20 14 Oeste 18 Oeste 0 -- -- 71
2019-05-23 20:00:00 20.8 15 Oeste 16 Oeste 0 -- -- 60
2019-05-23 19:00:00 20.8 12 Oeste 16 Oeste 0 -- -- 67
2019-05-23 18:00:00 20.6 13 Oeste 16 Oeste 0 -- -- 74
2019-05-23 17:00:00 20.5 11 Oeste 15 Oeste 0 -- -- 74
2019-05-23 16:00:00 20.3 12 Oeste 14 Oeste 0 -- -- 71
2019-05-23 15:00:00 20.7 9 Sudoeste 12 Oeste 0 -- -- 70
2019-05-23 14:00:00 20.3 9 Oeste 15 Oeste 0 -- -- 65
2019-05-23 13:00:00 20.6 6 Sudoeste 7 Sudoeste 0 -- -- 67
2019-05-23 12:00:00 20.3 5 Sudoeste 16 Oeste 0 -- -- 68
2019-05-23 11:00:00 18.6 12 Oeste 14 Oeste 0 -- -- 73
2019-05-23 10:00:00 20.2 3 Sudoeste 5 Sudoeste 0 -- -- 62
2019-05-23 09:00:00 20.4 0 Calma 5 Este 0 -- -- 56
2019-05-23 08:00:00 20.8 2 Este 15 Norte 0 -- -- 47
2019-05-23 07:00:00 19.4 11 Norte 17 Nordeste 0 -- -- 43
2019-05-23 06:00:00 19.3 10 Norte 16 Nordeste 0 -- -- 44
2019-05-23 05:00:00 19.4 11 Nordeste 15 Nordeste 0 -- -- 46
2019-05-23 04:00:00 19.4 10 Norte 16 Norte 0 -- -- 54
2019-05-23 03:00:00 18.5 9 Nordeste 13 Nordeste 0 -- -- 59
2019-05-23 02:00:00 17.5 6 Nordeste 9 Nordeste 0 -- -- 69
2019-05-23 01:00:00 17.3 5 Nordeste 7 Este 0 -- -- 76
2019-05-23 00:00:00 17.8 0 Calma 3 Norte 0 -- -- 78
2019-05-22 23:00:00 18.1 0 Calma 6 Oeste 0 -- -- 78
2019-05-22 22:00:00 18.6 0 Calma 10 Este 0 -- -- 76
2019-05-22 21:00:00 19.9 7 Este 9 Este 0 -- -- 79
2019-05-22 20:00:00 20.5 7 Nordeste 11 Nordeste 0 -- -- 77
2019-05-22 19:00:00 20.9 10 Este 18 Este 0 -- -- 76
2019-05-22 18:00:00 20.9 15 Este 20 Este 0 -- -- 74
2019-05-22 17:00:00 20.6 19 Este 24 Este 0 -- -- 74
2019-05-22 16:00:00 20.3 21 Este 26 Este 0 -- -- 76
2019-05-22 15:00:00 20.1 23 Este 26 Este 0 -- -- 76
2019-05-22 14:00:00 20.1 22 Este 26 Este 0 -- -- 75
2019-05-22 13:00:00 20 21 Este 23 Este 0 -- -- 75
2019-05-22 12:00:00 19.9 18 Este 20 Este 0 -- -- 74
2019-05-22 11:00:00 19.3 17 Este 28 Este 0 -- -- 77
2019-05-22 10:00:00 19 23 Este 31 Nordeste 0 -- -- 76
2019-05-22 09:00:00 19.9 19 Nordeste 28 Nordeste 0 -- -- 69
2019-05-22 08:00:00 18.8 17 Nordeste 24 Nordeste 0 -- -- 72
2019-05-22 07:00:00 18.1 19 Nordeste 29 Nordeste 0 -- -- 78
2019-05-22 06:00:00 17.9 15 Nordeste 21 Nordeste 0 -- -- 71
2019-05-22 05:00:00 17.8 15 Nordeste 26 Nordeste 0 -- -- 73
2019-05-22 04:00:00 17.6 18 Nordeste 27 Nordeste 0 -- -- 81
2019-05-22 03:00:00 18 18 Nordeste 23 Nordeste 0 -- -- 76
2019-05-22 02:00:00 18.2 17 Nordeste 24 Nordeste 0 -- -- 81
2019-05-22 01:00:00 18.4 18 Nordeste 24 Nordeste 0 -- -- 80
2019-05-22 00:00:00 18.4 22 Nordeste 27 Nordeste 0 -- -- 76
2019-05-21 23:00:00 18.6 24 Este 28 Este 0 -- -- 81
2019-05-21 22:00:00 19.3 23 Nordeste 28 Nordeste 0 -- -- 76
2019-05-21 21:00:00 19.2 25 Este 27 Este 0 -- -- 78
2019-05-21 20:00:00 20.6 12 Oeste 17 Sudoeste 0 -- -- 69
2019-05-21 19:00:00 20.6 10 Sudoeste 21 Sudoeste 0 -- -- 69
2019-05-21 18:00:00 19.7 18 Sudoeste 22 Sudoeste 0 -- -- 76
2019-05-21 17:00:00 19.6 14 Sudoeste 19 Sudoeste 0 -- -- 75
2019-05-21 16:00:00 20.4 6 Sudoeste 10 Sudoeste 0 -- -- 74
2019-05-21 15:00:00 19.9 7 Sudoeste 9 Sudoeste 0 -- -- 75
2019-05-21 14:00:00 20.2 6 Sur 9 Sur 0 -- -- 74
2019-05-21 13:00:00 19.4 6 Sudeste 9 Este 0 -- -- 75
2019-05-21 12:00:00 19.3 8 Este 10 Este 0 -- -- 80
2019-05-21 11:00:00 18.9 7 Este 13 Este 0 -- -- 81
2019-05-21 10:00:00 18.5 13 Este 18 Este 0 -- -- 81
2019-05-21 09:00:00 18 14 Este 17 Este 0 -- -- 81
2019-05-21 08:00:00 17.5 7 Este 14 Oeste 0 -- -- 77
2019-05-21 07:00:00 16.1 8 Oeste 15 Sudoeste 0 -- -- 80
2019-05-21 06:00:00 16.1 3 Este 8 Sudoeste 0 -- -- 73
2019-05-21 05:00:00 15.9 6 Oeste 10 Oeste 0 -- -- 74
2019-05-21 04:00:00 16.5 0 Calma 5 Nordeste 0 -- -- 79
2019-05-21 03:00:00 16.9 3 Nordeste 8 Nordeste 0 -- -- 78
2019-05-21 02:00:00 17.5 4 Este 8 Oeste 0 -- -- 78
2019-05-21 01:00:00 17.2 5 Oeste 13 Oeste 0 -- -- 75
2019-05-21 00:00:00 17.5 4 Sudoeste 8 Oeste 0 -- -- 76